Time;durP1;ratioP1;P1;durP2;ratioP2;P2;SDS_P1;SDS_P2;PMS_P1;PMS_P2;Temp;Humidity;BMP_temperature;BMP_pressure;BME280_temperature;BME280_humidity;BME280_pressure;Samples;Min_cycle;Max_cycle;Signal;HPM_P1;HPM_P2
2023/04/09 00:00:42;;;;;;;;;;;;;;;;;;4884651;29;19930;-92
2023/04/09 00:03:12;;;;;;;;;;;;;;;;;;4913989;29;19939;-93
2023/04/09 00:05:38;;;;;;;;;;;;;;;;;;4884455;29;19930;-94
2023/04/09 00:08:04;;;;;;;;;;;;;;;;;;4884649;29;19923;-94
2023/04/09 00:10:30;;;;;;;;;;;;;;;;;;4884339;29;19931;-93
2023/04/09 00:12:56;;;;;;;;;;;;;;;;;;4884351;29;19939;-93
2023/04/09 00:15:22;;;;;;;;;;;;;;;;;;4884420;29;20377;-93
2023/04/09 00:17:48;;;;;;;;;;;;;;;;;;4884298;29;19923;-93
2023/04/09 00:20:14;;;;;;;;;;;;;;;;;;4884484;29;19922;-94
2023/04/09 00:22:40;;;;;;;;;;;;;;;;;;4884625;29;19990;-93
2023/04/09 00:25:06;;;;;;;;;;;;;;;;;;4884242;29;19931;-93
2023/04/09 00:27:41;;;;;;;;;;;;;;;;;;4884656;29;19927;-93
2023/04/09 00:30:07;;;;;;;;;;;;;;;;;;4884462;29;19924;-93
2023/04/09 00:32:33;;;;;;;;;;;;;;;;;;4884218;29;19927;-93
2023/04/09 00:34:59;;;;;;;;;;;;;;;;;;4884014;29;19924;-93
2023/04/09 00:37:25;;;;;;;;;;;;;;;;;;4884098;29;19930;-93
2023/04/09 00:39:51;;;;;;;;;;;;;;;;;;4883963;29;20354;-94
2023/04/09 00:42:17;;;;;;;;;;;;;;;;;;4885798;29;19922;-93
2023/04/09 00:44:43;;;;;;;;;;;;;;;;;;4884306;29;19927;-92
2023/04/09 00:47:09;;;;;;;;;;;;;;;;;;4884012;29;19927;-93
2023/04/09 00:49:35;;;;;;;;;;;;;;;;;;4888244;29;20015;-93
2023/04/09 00:52:01;;;;;;;;;;;;;;;;;;4888201;29;20003;-94
2023/04/09 00:54:27;;;;;;;;;;;;;;;;;;4888160;29;19923;-94
2023/04/09 00:56:53;;;;;;;;;;;;;;;;;;4887670;29;19938;-94
2023/04/09 00:59:19;;;;;;;;;;;;;;;;;;4887928;29;19923;-93
2023/04/09 01:01:45;;;;;;;;;;;;;;;;;;4887877;29;19930;-93
2023/04/09 01:04:13;;;;;;;;;;;;;;;;;;4888067;29;19923;-94
2023/04/09 01:06:40;;;;;;;;;;;;;;;;;;4888145;29;19923;-93
2023/04/09 01:09:06;;;;;;;;;;;;;;;;;;4888154;29;19923;-93
2023/04/09 01:11:32;;;;;;;;;;;;;;;;;;4887737;29;20037;-94
2023/04/09 01:13:58;;;;;;;;;;;;;;;;;;4888156;29;20274;-94
2023/04/09 01:16:24;;;;;;;;;;;;;;;;;;4887717;29;19935;-92
2023/04/09 01:19:06;;;;;;;;;;;;;;;;;;4916762;29;19930;-93
2023/04/09 01:21:44;;;;;;;;;;;;;;;;;;4887036;29;19975;-94
2023/04/09 01:24:11;;;;;;;;;;;;;;;;;;4903229;29;19930;-93
2023/04/09 01:26:37;;;;;;;;;;;;;;;;;;4887787;29;20005;-93
2023/04/09 01:29:03;;;;;;;;;;;;;;;;;;4887597;29;19931;-93
2023/04/09 01:31:29;;;;;;;;;;;;;;;;;;4887767;29;19927;-93
2023/04/09 01:33:55;;;;;;;;;;;;;;;;;;4887373;29;19953;-93
2023/04/09 01:36:21;;;;;;;;;;;;;;;;;;4902813;29;19923;-93
2023/04/09 01:38:47;;;;;;;;;;;;;;;;;;4887297;29;20330;-92
2023/04/09 01:41:13;;;;;;;;;;;;;;;;;;4886995;29;19927;-93
2023/04/09 01:43:41;;;;;;;;;;;;;;;;;;4887765;29;20033;-93
2023/04/09 01:46:07;;;;;;;;;;;;;;;;;;4887415;29;19923;-93
2023/04/09 01:48:36;;;;;;;;;;;;;;;;;;4887289;29;20348;-94
2023/04/09 01:51:09;;;;;;;;;;;;;;;;;;4902978;29;20310;-95
2023/04/09 01:53:42;;;;;;;;;;;;;;;;;;4887052;29;19923;-95
2023/04/09 01:59:17;;;;;;;;;;;;;;;;;;4919104;29;20294;-94
2023/04/09 02:01:50;;;;;;;;;;;;;;;;;;4902624;29;19930;-94
2023/04/09 02:04:24;;;;;;;;;;;;;;;;;;4889034;29;19991;-96
2023/04/09 02:06:50;;;;;;;;;;;;;;;;;;4899031;29;20028;-95
2023/04/09 02:09:16;;;;;;;;;;;;;;;;;;4886824;29;20367;-95
2023/04/09 02:11:44;;;;;;;;;;;;;;;;;;4886515;29;20379;-95
2023/04/09 02:14:10;;;;;;;;;;;;;;;;;;4886963;29;19923;-96
2023/04/09 02:16:36;;;;;;;;;;;;;;;;;;4886136;29;20272;-95
2023/04/09 02:19:10;;;;;;;;;;;;;;;;;;4886145;29;19934;-96
2023/04/09 02:21:36;;;;;;;;;;;;;;;;;;4886516;29;20382;-95
2023/04/09 02:24:05;;;;;;;;;;;;;;;;;;4886490;29;19923;-95
2023/04/09 02:26:34;;;;;;;;;;;;;;;;;;4887033;29;20352;-94
2023/04/09 02:29:05;;;;;;;;;;;;;;;;;;4902152;29;19923;-95
2023/04/09 02:31:34;;;;;;;;;;;;;;;;;;4886101;29;19927;-94
2023/04/09 02:34:10;;;;;;;;;;;;;;;;;;;;;
2023/04/09 02:36:39;;;;;;;;;;;;;;;;;;4901827;29;19983;-95
2023/04/09 02:39:05;;;;;;;;;;;;;;;;;;4886214;29;19927;-94
2023/04/09 02:41:33;;;;;;;;;;;;;;;;;;4901654;29;19927;-94
2023/04/09 02:43:59;;;;;;;;;;;;;;;;;;4885646;29;19930;-95
2023/04/09 02:46:38;;;;;;;;;;;;;;;;;;;;;
2023/04/09 02:49:04;;;;;;;;;;;;;;;;;;4901774;29;19927;-93
2023/04/09 02:51:30;;;;;;;;;;;;;;;;;;4885563;29;20319;-93
2023/04/09 02:53:56;;;;;;;;;;;;;;;;;;4885345;29;19930;-92
2023/04/09 02:56:25;;;;;;;;;;;;;;;;;;4901467;29;20063;-93
2023/04/09 02:58:52;;;;;;;;;;;;;;;;;;4885946;29;19931;-93
2023/04/09 03:01:18;;;;;;;;;;;;;;;;;;4885466;29;19927;-93
2023/04/09 03:03:44;;;;;;;;;;;;;;;;;;4885833;29;19923;-93
2023/04/09 03:09:14;;;;;;;;;;;;;;;;;;4919564;29;20006;-92
2023/04/09 03:11:40;;;;;;;;;;;;;;;;;;4884270;29;19982;-93
2023/04/09 03:14:08;;;;;;;;;;;;;;;;;;4885577;29;22443;-92
2023/04/09 03:16:34;;;;;;;;;;;;;;;;;;4885290;29;19938;-92
2023/04/09 03:19:00;;;;;;;;;;;;;;;;;;4885306;29;19929;-93
2023/04/09 03:21:26;;;;;;;;;;;;;;;;;;4885292;29;19927;-95
2023/04/09 03:24:13;;;;;;;;;;;;;;;;;;4885329;29;19930;-95
2023/04/09 03:26:43;;;;;;;;;;;;;;;;;;4901194;29;19930;-95
2023/04/09 03:29:09;;;;;;;;;;;;;;;;;;4885768;29;20488;-92
2023/04/09 03:31:36;;;;;;;;;;;;;;;;;;4884211;29;19927;-92
2023/04/09 03:34:02;;;;;;;;;;;;;;;;;;4884766;29;19927;-93
2023/04/09 03:36:28;;;;;;;;;;;;;;;;;;4884786;29;20039;-92
2023/04/09 03:38:54;;;;;;;;;;;;;;;;;;4885147;29;19923;-93
2023/04/09 03:41:20;;;;;;;;;;;;;;;;;;4884212;29;19926;-92
2023/04/09 03:43:46;;;;;;;;;;;;;;;;;;4884785;29;20385;-93
2023/04/09 03:46:12;;;;;;;;;;;;;;;;;;4885055;29;19931;-93
2023/04/09 03:48:38;;;;;;;;;;;;;;;;;;4884741;29;19947;-95
2023/04/09 03:51:04;;;;;;;;;;;;;;;;;;4884789;29;20022;-95
2023/04/09 03:53:30;;;;;;;;;;;;;;;;;;4885043;29;20011;-95
2023/04/09 03:55:56;;;;;;;;;;;;;;;;;;4884507;29;19930;-94
2023/04/09 03:58:22;;;;;;;;;;;;;;;;;;4885140;29;19923;-94
2023/04/09 04:00:48;;;;;;;;;;;;;;;;;;4885056;29;19923;-95
2023/04/09 04:03:15;;;;;;;;;;;;;;;;;;4884279;29;20290;-95
2023/04/09 04:05:41;;;;;;;;;;;;;;;;;;4884643;29;19926;-94
2023/04/09 04:08:07;;;;;;;;;;;;;;;;;;4884441;29;19923;-95
2023/04/09 04:10:33;;;;;;;;;;;;;;;;;;4884701;29;19986;-96
2023/04/09 04:13:00;;;;;;;;;;;;;;;;;;4884488;29;19946;-92
2023/04/09 04:15:26;;;;;;;;;;;;;;;;;;4884001;29;20402;-93
2023/04/09 04:17:52;;;;;;;;;;;;;;;;;;4884310;29;19980;-94
2023/04/09 04:20:18;;;;;;;;;;;;;;;;;;4883955;29;19924;-92
2023/04/09 04:22:44;;;;;;;;;;;;;;;;;;4884361;29;19923;-93
2023/04/09 04:25:10;;;;;;;;;;;;;;;;;;4884473;29;20379;-94
2023/04/09 04:27:36;;;;;;;;;;;;;;;;;;4884149;29;19930;-93
2023/04/09 04:30:02;;;;;;;;;;;;;;;;;;4884399;29;19945;-92
2023/04/09 04:32:28;;;;;;;;;;;;;;;;;;4884173;29;19935;-93
2023/04/09 04:34:54;;;;;;;;;;;;;;;;;;4884599;29;19979;-93
2023/04/09 04:37:20;;;;;;;;;;;;;;;;;;4884512;29;19966;-93
2023/04/09 04:39:46;;;;;;;;;;;;;;;;;;4884507;29;19930;-92
2023/04/09 04:42:12;;;;;;;;;;;;;;;;;;4884331;29;20390;-93
2023/04/09 04:44:38;;;;;;;;;;;;;;;;;;4899590;29;19923;-93
2023/04/09 04:47:04;;;;;;;;;;;;;;;;;;4884095;29;19934;-93
2023/04/09 04:49:30;;;;;;;;;;;;;;;;;;4884263;29;19923;-93
2023/04/09 04:51:56;;;;;;;;;;;;;;;;;;4884078;29;20067;-94
2023/04/09 04:54:22;;;;;;;;;;;;;;;;;;4884055;29;20007;-93
2023/04/09 04:56:48;;;;;;;;;;;;;;;;;;4884049;29;19946;-94
2023/04/09 04:59:14;;;;;;;;;;;;;;;;;;4884111;29;20320;-94
2023/04/09 05:01:40;;;;;;;;;;;;;;;;;;4884238;29;19923;-94
2023/04/09 05:04:06;;;;;;;;;;;;;;;;;;4883954;29;19923;-94
2023/04/09 05:06:32;;;;;;;;;;;;;;;;;;4884499;29;19981;-94
2023/04/09 05:08:58;;;;;;;;;;;;;;;;;;4884251;29;19930;-93
2023/04/09 05:11:24;;;;;;;;;;;;;;;;;;4884129;29;19931;-93
2023/04/09 05:13:50;;;;;;;;;;;;;;;;;;4883642;29;19945;-95
2023/04/09 05:16:17;;;;;;;;;;;;;;;;;;4883743;29;20386;-94
2023/04/09 05:18:43;;;;;;;;;;;;;;;;;;4884280;29;20026;-94
2023/04/09 05:21:09;;;;;;;;;;;;;;;;;;4884440;29;19977;-95
2023/04/09 05:23:35;;;;;;;;;;;;;;;;;;4884534;29;19947;-94
2023/04/09 05:26:01;;;;;;;;;;;;;;;;;;4884025;29;19923;-94
2023/04/09 05:28:27;;;;;;;;;;;;;;;;;;4883747;29;19923;-95
2023/04/09 05:30:55;;;;;;;;;;;;;;;;;;4883820;29;20026;-94
2023/04/09 05:33:21;;;;;;;;;;;;;;;;;;4884569;29;19923;-93
2023/04/09 05:35:47;;;;;;;;;;;;;;;;;;4887495;29;19930;-94
2023/04/09 05:38:13;;;;;;;;;;;;;;;;;;4887464;29;19983;-94
2023/04/09 05:40:41;;;;;;;;;;;;;;;;;;4887103;29;19988;-94
2023/04/09 05:43:07;;;;;;;;;;;;;;;;;;4887429;29;19923;-93
2023/04/09 05:45:33;;;;;;;;;;;;;;;;;;4887599;29;20362;-94
2023/04/09 05:48:01;;;;;;;;;;;;;;;;;;4887154;29;20018;-95
2023/04/09 05:50:27;;;;;;;;;;;;;;;;;;4886888;29;20022;-94
2023/04/09 05:52:53;;;;;;;;;;;;;;;;;;4887580;29;20005;-93
2023/04/09 05:55:19;;;;;;;;;;;;;;;;;;4886701;29;19923;-95
2023/04/09 05:57:47;;;;;;;;;;;;;;;;;;4887257;29;19923;-94
2023/04/09 06:00:14;;;;;;;;;;;;;;;;;;4886983;29;19934;-94
2023/04/09 06:02:42;;;;;;;;;;;;;;;;;;4886851;29;19923;-95
2023/04/09 06:05:17;;;;;;;;;;;;;;;;;;4886725;29;20018;-95
2023/04/09 06:07:43;;;;;;;;;;;;;;;;;;4886957;29;19927;-95
2023/04/09 06:10:17;;;;;;;;;;;;;;;;;;4886918;29;19923;-95
2023/04/09 06:12:43;;;;;;;;;;;;;;;;;;4886870;29;19942;-96
2023/04/09 06:15:09;;;;;;;;;;;;;;;;;;4886244;29;20086;-95
2023/04/09 06:17:37;;;;;;;;;;;;;;;;;;4886561;29;19923;-96
2023/04/09 06:20:06;;;;;;;;;;;;;;;;;;4886412;29;20067;-95
2023/04/09 06:22:53;;;;;;;;;;;;;;;;;;4886969;29;19923;-96
2023/04/09 06:25:18;;;;;;;;;;;;;;;;;;4909401;29;19923;-96
2023/04/09 06:27:46;;;;;;;;;;;;;;;;;;4886463;29;20014;-95
2023/04/09 06:30:30;;;;;;;;;;;;;;;;;;4886247;29;19974;-96
2023/04/09 06:32:56;;;;;;;;;;;;;;;;;;4886418;29;19923;-95
2023/04/09 06:38:20;;;;;;;;;;;;;;;;;;4902316;29;19923;-95
2023/04/09 06:40:46;;;;;;;;;;;;;;;;;;4886503;29;19923;-94
2023/04/09 06:43:30;;;;;;;;;;;;;;;;;;4885894;29;20286;-95
2023/04/09 06:45:56;;;;;;;;;;;;;;;;;;4886535;29;19941;-96
2023/04/09 06:48:22;;;;;;;;;;;;;;;;;;4886041;29;19927;-95
2023/04/09 06:50:57;;;;;;;;;;;;;;;;;;4886075;29;19934;-94
2023/04/09 06:53:23;;;;;;;;;;;;;;;;;;4887083;29;19934;-92
2023/04/09 06:55:50;;;;;;;;;;;;;;;;;;4886666;29;19927;-93
2023/04/09 06:58:17;;;;;;;;;;;;;;;;;;4901479;29;19987;-91
2023/04/09 07:00:43;;;;;;;;;;;;;;;;;;4901320;29;19927;-94
2023/04/09 07:03:09;;;;;;;;;;;;;;;;;;4901250;29;19945;-92
2023/04/09 07:05:40;;;;;;;;;;;;;;;;;;4884863;29;20010;-93
2023/04/09 07:08:09;;;;;;;;;;;;;;;;;;4886404;29;20423;-96
2023/04/09 07:10:35;;;;;;;;;;;;;;;;;;4885537;29;19927;-94
2023/04/09 07:13:01;;;;;;;;;;;;;;;;;;4885872;29;19979;-93
2023/04/09 07:15:27;;;;;;;;;;;;;;;;;;4885492;29;20320;-93
2023/04/09 07:18:08;;;;;;;;;;;;;;;;;;4885742;29;19927;-94
2023/04/09 07:20:38;;;;;;;;;;;;;;;;;;4901911;29;19923;-92
2023/04/09 07:23:04;;;;;;;;;;;;;;;;;;4885081;29;20384;-92
2023/04/09 07:25:39;;;;;;;;;;;;;;;;;;4886904;29;20043;-92
2023/04/09 07:28:05;;;;;;;;;;;;;;;;;;4884867;29;19988;-93
2023/04/09 07:30:31;;;;;;;;;;;;;;;;;;4885525;29;19935;-93
2023/04/09 07:33:00;;;;;;;;;;;;;;;;;;4885341;29;19923;-92
2023/04/09 07:35:27;;;;;;;;;;;;;;;;;;4884422;29;19949;-92
2023/04/09 07:37:53;;;;;;;;;;;;;;;;;;4884432;29;19979;-93
2023/04/09 07:40:19;;;;;;;;;;;;;;;;;;4884720;29;19923;-92
2023/04/09 07:42:54;;;;;;;;;;;;;;;;;;4892652;29;19923;-96
2023/04/09 07:45:20;;;;;;;;;;;;;;;;;;4887178;29;19923;-92
2023/04/09 07:47:49;;;;;;;;;;;;;;;;;;4883833;29;20336;-95
2023/04/09 07:50:15;;;;;;;;;;;;;;;;;;4883973;29;19981;-91
2023/04/09 07:52:41;;;;;;;;;;;;;;;;;;4896370;29;19954;-93
2023/04/09 07:55:07;;;;;;;;;;;;;;;;;;4903688;29;20271;-94
2023/04/09 07:57:33;;;;;;;;;;;;;;;;;;4910840;29;19927;-95
2023/04/09 07:59:59;;;;;;;;;;;;;;;;;;4905451;29;19930;-93
2023/04/09 08:02:25;;;;;;;;;;;;;;;;;;4918730;29;19998;-92
2023/04/09 08:05:07;;;;;;;;;;;;;;;;;;4926377;29;19955;-94
2023/04/09 08:07:32;;;;;;;;;;;;;;;;;;4903167;29;19929;-93
2023/04/09 08:09:59;;;;;;;;;;;;;;;;;;4905074;29;19923;-95
2023/04/09 08:13:25;;;;;;;;;;;;;;;;;;4904631;29;20215;-96
2023/04/09 08:21:41;;;;;;;;;;;;;;;;;;4942894;29;19947;-96
2023/04/09 08:35:16;;;;;;;;;;;;;;;;;;5077660;23;19983;-91
2023/04/09 08:37:45;;;;;;;;;;;;;;;;;;4887630;29;19927;-94
2023/04/09 08:40:14;;;;;;;;;;;;;;;;;;4887276;29;20021;-95
2023/04/09 08:49:38;;;;;;;;;;;;;;;;;;;;;
2023/04/09 08:51:53;;;;;;;;;;;;;;;;;;4877170;29;19976;-96
2023/04/09 09:50:20;;;;;;;;;;;;;;;;;;4921229;29;19935;-96
2023/04/09 09:52:49;;;;;;;;;;;;;;;;;;4902067;29;19927;-96
2023/04/09 09:55:16;;;;;;;;;;;;;;;;;;4887193;29;19991;-95
2023/04/09 09:58:18;;;;;;;;;;;;;;;;;;4919635;29;19923;-94
2023/04/09 10:01:04;;;;;;;;;;;;;;;;;;4902318;29;20018;-94
2023/04/09 10:03:30;;;;;;;;;;;;;;;;;;4887840;29;19946;-93
2023/04/09 10:05:58;;;;;;;;;;;;;;;;;;4886393;29;19923;-92
2023/04/09 10:08:24;;;;;;;;;;;;;;;;;;4886706;29;20018;-94
2023/04/09 10:10:50;;;;;;;;;;;;;;;;;;4886438;29;19982;-94
2023/04/09 10:13:17;;;;;;;;;;;;;;;;;;4886282;29;19927;-93
2023/04/09 10:15:45;;;;;;;;;;;;;;;;;;4887668;29;19977;-96
2023/04/09 10:18:15;;;;;;;;;;;;;;;;;;4902146;29;19933;-95
2023/04/09 10:20:56;;;;;;;;;;;;;;;;;;4883313;29;19924;-93
2023/04/09 10:23:30;;;;;;;;;;;;;;;;;;4902230;29;20016;-94
2023/04/09 10:45:15;;;;;;;;;;;;;;;;;;5539742;23;20133;-93
2023/04/09 10:47:41;;;;;;;;;;;;;;;;;;4885844;29;20020;-93
2023/04/09 10:50:15;;;;;;;;;;;;;;;;;;4889450;29;19927;-94
2023/04/09 10:52:44;;;;;;;;;;;;;;;;;;4886619;29;19938;-93
2023/04/09 10:55:17;;;;;;;;;;;;;;;;;;4885932;29;19923;-96
2023/04/09 10:57:43;;;;;;;;;;;;;;;;;;4886186;29;20018;-93
2023/04/09 11:03:25;;;;;;;;;;;;;;;;;;4883657;29;19923;-93
2023/04/09 11:32:06;;;;;;;;;;;;;;;;;;5207322;23;19927;-93
2023/04/09 11:34:42;;;;;;;;;;;;;;;;;;4903606;29;19927;-96
2023/04/09 11:37:15;;;;;;;;;;;;;;;;;;4903920;29;19923;-96
2023/04/09 11:39:53;;;;;;;;;;;;;;;;;;4911025;29;19930;-96
2023/04/09 11:42:21;;;;;;;;;;;;;;;;;;4903246;29;19947;-94
2023/04/09 11:44:46;;;;;;;;;;;;;;;;;;4889512;29;19975;-94
2023/04/09 11:47:12;;;;;;;;;;;;;;;;;;4889377;29;20058;-96
2023/04/09 11:49:39;;;;;;;;;;;;;;;;;;4887796;29;19930;-96
2023/04/09 11:52:07;;;;;;;;;;;;;;;;;;4892594;29;20051;-95
2023/04/09 11:54:33;;;;;;;;;;;;;;;;;;4886600;29;19991;-94
2023/04/09 12:03:21;;;;;;;;;;;;;;;;;;4917792;29;19922;-95
2023/04/09 12:14:50;;;;;;;;;;;;;;;;;;4935907;29;19939;-92
2023/04/09 12:17:21;;;;;;;;;;;;;;;;;;4886314;29;19927;-96
2023/04/09 12:22:40;;;;;;;;;;;;;;;;;;4901848;29;20382;-95
2023/04/09 12:25:06;;;;;;;;;;;;;;;;;;4884366;29;19923;-96
2023/04/09 12:27:38;;;;;;;;;;;;;;;;;;4885651;29;19930;-96
2023/04/09 12:30:05;;;;;;;;;;;;;;;;;;4900338;29;19977;-93
2023/04/09 12:32:34;;;;;;;;;;;;;;;;;;4885420;29;19927;-95
2023/04/09 12:35:01;;;;;;;;;;;;;;;;;;4884402;29;19975;-94
2023/04/09 12:37:29;;;;;;;;;;;;;;;;;;4884730;29;20219;-94
2023/04/09 12:39:55;;;;;;;;;;;;;;;;;;4884009;29;19931;-95
2023/04/09 12:42:21;;;;;;;;;;;;;;;;;;4884390;29;19946;-93
2023/04/09 12:44:47;;;;;;;;;;;;;;;;;;4884287;29;19930;-93
2023/04/09 12:47:14;;;;;;;;;;;;;;;;;;4884682;29;20359;-95
2023/04/09 12:49:44;;;;;;;;;;;;;;;;;;4885207;29;20375;-93
2023/04/09 13:35:06;;;;;;;;;;;;;;;;;;4915098;29;19927;-92
2023/04/09 13:37:32;;;;;;;;;;;;;;;;;;4899629;29;19927;-96
2023/04/09 13:40:11;;;;;;;;;;;;;;;;;;4906965;29;19923;-96
2023/04/09 13:42:40;;;;;;;;;;;;;;;;;;4884609;29;20009;-93
2023/04/09 13:45:06;;;;;;;;;;;;;;;;;;4899293;29;19962;-92
2023/04/09 13:47:39;;;;;;;;;;;;;;;;;;4884151;29;19922;-93
2023/04/09 13:50:12;;;;;;;;;;;;;;;;;;4886834;29;19923;-96
2023/04/09 13:52:39;;;;;;;;;;;;;;;;;;4900440;29;19934;-96
2023/04/09 13:55:11;;;;;;;;;;;;;;;;;;4889545;29;19934;-96
2023/04/09 13:57:42;;;;;;;;;;;;;;;;;;4910197;29;19930;-91
2023/04/09 14:00:08;;;;;;;;;;;;;;;;;;4886276;29;19923;-91
2023/04/09 14:02:34;;;;;;;;;;;;;;;;;;4887903;29;19923;-95
2023/04/09 14:05:02;;;;;;;;;;;;;;;;;;4891462;29;19975;-94
2023/04/09 14:07:34;;;;;;;;;;;;;;;;;;5147395;23;19969;-94
2023/04/09 14:10:04;;;;;;;;;;;;;;;;;;4921966;29;19978;-95
2023/04/09 14:12:40;;;;;;;;;;;;;;;;;;4907385;29;19985;-97
2023/04/09 14:30:51;;;;;;;;;;;;;;;;;;5657401;23;19927;-94
2023/04/09 14:33:42;;;;;;;;;;;;;;;;;;4920749;29;19934;-94
2023/04/09 14:39:14;;;;;;;;;;;;;;;;;;4919205;29;19938;-93
2023/04/09 14:41:49;;;;;;;;;;;;;;;;;;4901629;29;19923;-94
2023/04/09 15:05:05;;;;;;;;;;;;;;;;;;5932396;23;19949;-94
2023/04/09 15:07:34;;;;;;;;;;;;;;;;;;4906809;29;20406;-96
2023/04/09 15:10:19;;;;;;;;;;;;;;;;;;;;;
2023/04/09 15:13:06;;;;;;;;;;;;;;;;;;5507796;23;19999;-90
2023/04/09 15:18:42;;;;;;;;;;;;;;;;;;4918894;29;20291;-93
2023/04/09 15:21:12;;;;;;;;;;;;;;;;;;4901680;29;20260;-94
2023/04/09 15:23:38;;;;;;;;;;;;;;;;;;4887335;29;19981;-93
2023/04/09 15:26:07;;;;;;;;;;;;;;;;;;4886258;29;20287;-96
2023/04/09 15:28:33;;;;;;;;;;;;;;;;;;4886536;29;19970;-92
2023/04/09 16:34:59;;;;;;;;;;;;;;;;;;5424174;23;20320;-94
2023/04/09 16:37:26;;;;;;;;;;;;;;;;;;4884865;29;19923;-93
2023/04/09 16:39:56;;;;;;;;;;;;;;;;;;4885471;29;19977;-94
2023/04/09 16:58:36;;;;;;;;;;;;;;;;;;5231181;23;19987;-92
2023/04/09 17:01:05;;;;;;;;;;;;;;;;;;4928356;29;19947;-90
2023/04/09 17:37:45;;;;;;;;;;;;;;;;;;5678004;23;20437;-91
2023/04/09 17:40:17;;;;;;;;;;;;;;;;;;4921415;29;20382;-91
2023/04/09 17:42:44;;;;;;;;;;;;;;;;;;4921299;29;19930;-92
2023/04/09 17:55:33;;;;;;;;;;;;;;;;;;5935281;23;19940;-91
2023/04/09 17:57:59;;;;;;;;;;;;;;;;;;4905691;29;19966;-92
2023/04/09 18:00:25;;;;;;;;;;;;;;;;;;4905820;29;19969;-90
2023/04/09 18:03:19;;;;;;;;;;;;;;;;;;4917804;29;19967;-94
2023/04/09 18:05:45;;;;;;;;;;;;;;;;;;4881259;29;19939;-94
2023/04/09 18:08:11;;;;;;;;;;;;;;;;;;4867643;29;19923;-95
2023/04/09 18:10:37;;;;;;;;;;;;;;;;;;4867053;29;19984;-94
2023/04/09 18:13:03;;;;;;;;;;;;;;;;;;4866930;29;19924;-94
2023/04/09 18:15:29;;;;;;;;;;;;;;;;;;4866613;29;19923;-92
2023/04/09 18:17:55;;;;;;;;;;;;;;;;;;4868393;29;19927;-93
2023/04/09 18:20:42;;;;;;;;;;;;;;;;;;4867968;29;20414;-93
2023/04/09 19:29:09;;;;;;;;;;;;;;;;;;5583409;23;19998;-96
2023/04/09 19:31:40;;;;;;;;;;;;;;;;;;4937252;29;19937;-95
2023/04/09 19:34:06;;;;;;;;;;;;;;;;;;4922375;29;19923;-94
2023/04/09 19:39:11;;;;;;;;;;;;;;;;;;5968790;23;19945;-93
2023/04/09 19:41:38;;;;;;;;;;;;;;;;;;4903478;29;19923;-93
2023/04/09 19:44:09;;;;;;;;;;;;;;;;;;4889658;29;19923;-94
2023/04/09 19:54:48;;;;;;;;;;;;;;;;;;6050258;23;19928;-94
2023/04/09 19:57:14;;;;;;;;;;;;;;;;;;4886853;29;20367;-95
2023/04/09 19:59:40;;;;;;;;;;;;;;;;;;4884699;29;19946;-95
2023/04/09 20:02:06;;;;;;;;;;;;;;;;;;4884875;29;20391;-94
2023/04/09 20:04:33;;;;;;;;;;;;;;;;;;4886752;29;19974;-95
2023/04/09 20:06:59;;;;;;;;;;;;;;;;;;4885583;29;19947;-93
2023/04/09 20:09:27;;;;;;;;;;;;;;;;;;4884620;29;19923;-93
2023/04/09 20:11:53;;;;;;;;;;;;;;;;;;4883829;29;20375;-92
2023/04/09 20:14:22;;;;;;;;;;;;;;;;;;4884803;29;19927;-91
2023/04/09 20:16:51;;;;;;;;;;;;;;;;;;4900920;29;20017;-93
2023/04/09 20:19:18;;;;;;;;;;;;;;;;;;4883789;29;19978;-93
2023/04/09 20:21:45;;;;;;;;;;;;;;;;;;4884624;29;20061;-93
2023/04/09 20:24:11;;;;;;;;;;;;;;;;;;4884039;29;19930;-95
2023/04/09 20:26:37;;;;;;;;;;;;;;;;;;4884974;29;19923;-93
2023/04/09 20:29:03;;;;;;;;;;;;;;;;;;4884551;29;19939;-93
2023/04/09 20:31:35;;;;;;;;;;;;;;;;;;4884328;29;19923;-96
2023/04/09 20:34:01;;;;;;;;;;;;;;;;;;4884488;29;19938;-95
2023/04/09 20:36:27;;;;;;;;;;;;;;;;;;4884315;29;20299;-93
2023/04/09 20:38:53;;;;;;;;;;;;;;;;;;4898113;29;19934;-93
2023/04/09 20:41:28;;;;;;;;;;;;;;;;;;4880848;29;19959;-95
2023/04/09 20:43:54;;;;;;;;;;;;;;;;;;4882813;29;19946;-92
2023/04/09 20:46:20;;;;;;;;;;;;;;;;;;4882406;29;20011;-96
2023/04/09 20:48:47;;;;;;;;;;;;;;;;;;4880888;29;19970;-96
2023/04/09 20:51:14;;;;;;;;;;;;;;;;;;4882590;29;19923;-96
2023/04/09 20:53:40;;;;;;;;;;;;;;;;;;4886518;29;19932;-93
2023/04/09 20:58:42;;;;;;;;;;;;;;;;;;5169690;23;19978;-93
2023/04/09 21:01:27;;;;;;;;;;;;;;;;;;;;;
2023/04/09 21:03:54;;;;;;;;;;;;;;;;;;4919717;29;19929;-94
2023/04/09 21:06:26;;;;;;;;;;;;;;;;;;4896536;29;19934;-93
2023/04/09 21:08:54;;;;;;;;;;;;;;;;;;4887645;29;19977;-91
2023/04/09 21:11:20;;;;;;;;;;;;;;;;;;4887036;29;19988;-92
2023/04/09 21:13:46;;;;;;;;;;;;;;;;;;4887456;29;20032;-90
2023/04/09 21:16:15;;;;;;;;;;;;;;;;;;4887215;29;20244;-91
2023/04/09 21:18:41;;;;;;;;;;;;;;;;;;4902460;29;20394;-89
2023/04/09 21:21:07;;;;;;;;;;;;;;;;;;4886762;29;19952;-89
2023/04/09 21:23:33;;;;;;;;;;;;;;;;;;4886737;29;20009;-90
2023/04/09 21:25:59;;;;;;;;;;;;;;;;;;4886561;29;20021;-88
2023/04/09 21:28:25;;;;;;;;;;;;;;;;;;4886624;29;20343;-90
2023/04/09 21:30:51;;;;;;;;;;;;;;;;;;4886519;29;19935;-90
2023/04/09 21:33:17;;;;;;;;;;;;;;;;;;4886601;29;20013;-88
2023/04/09 21:35:43;;;;;;;;;;;;;;;;;;4886469;29;20034;-89
2023/04/09 21:38:09;;;;;;;;;;;;;;;;;;4886458;29;20271;-88
2023/04/09 21:40:35;;;;;;;;;;;;;;;;;;4886782;29;19930;-89
2023/04/09 21:43:01;;;;;;;;;;;;;;;;;;4886720;29;20287;-90
2023/04/09 21:45:27;;;;;;;;;;;;;;;;;;4902136;29;19923;-88
2023/04/09 21:47:52;;;;;;;;;;;;;;;;;;4886753;29;19933;-89
2023/04/09 21:50:18;;;;;;;;;;;;;;;;;;4886283;29;20009;-89
2023/04/09 21:52:45;;;;;;;;;;;;;;;;;;4885983;29;20389;-90
2023/04/09 21:55:11;;;;;;;;;;;;;;;;;;4885973;29;19927;-89
2023/04/09 21:57:37;;;;;;;;;;;;;;;;;;4885934;29;20006;-93
2023/04/09 22:00:04;;;;;;;;;;;;;;;;;;4886070;29;19923;-90
2023/04/09 22:02:30;;;;;;;;;;;;;;;;;;4886296;29;19923;-88
2023/04/09 22:04:55;;;;;;;;;;;;;;;;;;4886475;29;19927;-88
2023/04/09 22:07:21;;;;;;;;;;;;;;;;;;4886450;29;19923;-89
2023/04/09 22:09:47;;;;;;;;;;;;;;;;;;4901956;29;20375;-89
2023/04/09 22:12:13;;;;;;;;;;;;;;;;;;4885832;29;19963;-88
2023/04/09 22:14:39;;;;;;;;;;;;;;;;;;4885877;29;19923;-89
2023/04/09 22:17:07;;;;;;;;;;;;;;;;;;4885598;29;20461;-90
2023/04/09 22:19:33;;;;;;;;;;;;;;;;;;4886195;29;19930;-90
2023/04/09 22:21:59;;;;;;;;;;;;;;;;;;4885804;29;19923;-90
2023/04/09 22:24:32;;;;;;;;;;;;;;;;;;4885486;29;20008;-89
2023/04/09 22:26:58;;;;;;;;;;;;;;;;;;4885709;29;20013;-89
2023/04/09 22:29:24;;;;;;;;;;;;;;;;;;4885622;29;19945;-90
2023/04/09 22:31:50;;;;;;;;;;;;;;;;;;4901066;29;19977;-90
2023/04/09 22:34:16;;;;;;;;;;;;;;;;;;4886257;29;19924;-89
2023/04/09 22:36:42;;;;;;;;;;;;;;;;;;4886374;29;19926;-89
2023/04/09 22:39:08;;;;;;;;;;;;;;;;;;4885584;29;19935;-89
2023/04/09 22:41:34;;;;;;;;;;;;;;;;;;4901410;29;19930;-90
2023/04/09 22:44:01;;;;;;;;;;;;;;;;;;4901272;29;19975;-89
2023/04/09 22:46:27;;;;;;;;;;;;;;;;;;4885902;29;20327;-90
2023/04/09 22:48:53;;;;;;;;;;;;;;;;;;4885134;29;19923;-89
2023/04/09 22:51:19;;;;;;;;;;;;;;;;;;4885142;29;19950;-89
2023/04/09 22:53:45;;;;;;;;;;;;;;;;;;4885247;29;19927;-89
2023/04/09 22:56:11;;;;;;;;;;;;;;;;;;4885086;29;20384;-89
2023/04/09 22:58:37;;;;;;;;;;;;;;;;;;4884904;29;19933;-89
2023/04/09 23:01:03;;;;;;;;;;;;;;;;;;4885351;29;20006;-88
2023/04/09 23:03:29;;;;;;;;;;;;;;;;;;4885356;29;19975;-89
2023/04/09 23:05:55;;;;;;;;;;;;;;;;;;4900578;29;20413;-89
2023/04/09 23:08:21;;;;;;;;;;;;;;;;;;4885510;29;19998;-89
2023/04/09 23:10:47;;;;;;;;;;;;;;;;;;4885120;29;19930;-89
2023/04/09 23:13:15;;;;;;;;;;;;;;;;;;4900861;29;19936;-89
2023/04/09 23:15:41;;;;;;;;;;;;;;;;;;4900452;29;19979;-89
2023/04/09 23:18:07;;;;;;;;;;;;;;;;;;4900345;29;19927;-89
2023/04/09 23:20:33;;;;;;;;;;;;;;;;;;4884763;29;20294;-89
2023/04/09 23:22:59;;;;;;;;;;;;;;;;;;4900205;29;20267;-89
2023/04/09 23:25:25;;;;;;;;;;;;;;;;;;4884401;29;19931;-89
2023/04/09 23:27:51;;;;;;;;;;;;;;;;;;4899059;29;19999;-89
2023/04/09 23:30:17;;;;;;;;;;;;;;;;;;4884633;29;19930;-90
2023/04/09 23:32:43;;;;;;;;;;;;;;;;;;4884334;29;20026;-90
2023/04/09 23:35:09;;;;;;;;;;;;;;;;;;4884237;29;19999;-90
2023/04/09 23:37:35;;;;;;;;;;;;;;;;;;4899918;29;20062;-87
2023/04/09 23:40:01;;;;;;;;;;;;;;;;;;4884263;29;19973;-90
2023/04/09 23:42:31;;;;;;;;;;;;;;;;;;4884273;29;19930;-89
2023/04/09 23:45:02;;;;;;;;;;;;;;;;;;4884167;29;19946;-89
2023/04/09 23:47:28;;;;;;;;;;;;;;;;;;4884231;29;19930;-89
2023/04/09 23:50:03;;;;;;;;;;;;;;;;;;5110294;27;20099;-89
2023/04/09 23:52:29;;;;;;;;;;;;;;;;;;5108450;28;19924;-89
2023/04/09 23:54:55;;;;;;;;;;;;;;;;;;5108771;28;19924;-89
2023/04/09 23:57:21;;;;;;;;;;;;;;;;;;5108765;28;20075;-89
2023/04/09 23:59:50;;;;;;;;;;;;;;;;;;5091383;28;19969;-89
